createdAt,value
2023-10-26T00:01:41.433Z,10.70
2023-10-26T00:04:05.177Z,10.70
2023-10-26T00:06:28.800Z,10.60
2023-10-26T00:08:52.246Z,10.60
2023-10-26T00:11:17.260Z,10.70
2023-10-26T00:13:40.598Z,10.70
2023-10-26T00:16:04.507Z,10.80
2023-10-26T00:18:27.960Z,10.80
2023-10-26T00:20:51.614Z,10.60
2023-10-26T00:23:14.996Z,10.70
2023-10-26T00:25:38.822Z,10.70
2023-10-26T00:28:03.385Z,10.70
2023-10-26T00:30:26.969Z,10.60
2023-10-26T00:32:50.535Z,10.60
2023-10-26T00:35:13.812Z,10.50
2023-10-26T00:37:37.130Z,10.60
2023-10-26T00:40:00.879Z,10.50
2023-10-26T00:42:24.281Z,10.50
2023-10-26T00:44:50.814Z,10.60
2023-10-26T00:47:15.977Z,10.50
2023-10-26T00:49:41.824Z,10.50
2023-10-26T00:52:07.003Z,10.50
2023-10-26T00:54:30.688Z,10.50
2023-10-26T00:56:54.620Z,10.50
2023-10-26T00:59:18.813Z,10.50
2023-10-26T01:01:46.423Z,10.50
2023-10-26T01:04:09.632Z,10.50
2023-10-26T01:06:33.020Z,10.40
2023-10-26T01:08:56.758Z,10.40
2023-10-26T01:11:20.221Z,10.50
2023-10-26T01:13:44.377Z,10.50
2023-10-26T01:16:08.422Z,10.50
2023-10-26T01:18:33.243Z,10.50
2023-10-26T01:20:56.933Z,10.40
2023-10-26T01:23:21.773Z,10.50
2023-10-26T01:25:49.999Z,10.50
2023-10-26T01:28:13.238Z,10.50
2023-10-26T01:30:37.483Z,10.50
2023-10-26T01:33:00.791Z,10.30
2023-10-26T01:35:24.110Z,10.30
2023-10-26T01:37:47.777Z,10.40
2023-10-26T01:40:13.351Z,10.30
2023-10-26T01:42:36.801Z,10.30
2023-10-26T01:45:00.404Z,10.40
2023-10-26T01:47:23.894Z,10.30
2023-10-26T01:49:47.169Z,10.40
2023-10-26T01:52:10.954Z,10.30
2023-10-26T01:54:34.284Z,10.40
2023-10-26T01:57:00.445Z,10.30
2023-10-26T01:59:23.739Z,10.30
2023-10-26T02:01:47.164Z,10.40
2023-10-26T02:04:10.345Z,10.30
2023-10-26T02:06:34.169Z,10.20
2023-10-26T02:08:57.578Z,10.30
2023-10-26T02:11:21.184Z,10.20
2023-10-26T02:13:45.915Z,10.30
2023-10-26T02:16:09.736Z,10.30
2023-10-26T02:18:33.284Z,10.20
2023-10-26T02:20:57.125Z,10.20
2023-10-26T02:23:20.577Z,10.20
2023-10-26T02:25:44.383Z,10.20
2023-10-26T02:28:07.646Z,10.20
2023-10-26T02:30:32.514Z,10.30
2023-10-26T02:32:56.072Z,10.30
2023-10-26T02:35:21.851Z,10.30
2023-10-26T02:37:46.273Z,10.30
2023-10-26T02:40:11.225Z,10.30
2023-10-26T02:42:35.404Z,10.40
2023-10-26T02:44:59.713Z,10.40
2023-10-26T02:47:24.921Z,10.30
2023-10-26T02:49:48.212Z,10.40
2023-10-26T02:52:11.494Z,10.40
2023-10-26T02:54:34.690Z,10.40
2023-10-26T02:56:58.196Z,10.30
2023-10-26T02:59:21.551Z,10.20
2023-10-26T03:01:44.697Z,10.20
2023-10-26T03:04:09.933Z,10.20
2023-10-26T03:06:39.048Z,10.20
2023-10-26T03:09:02.596Z,10.30
2023-10-26T03:11:26.880Z,10.30
2023-10-26T03:13:50.785Z,10.40
2023-10-26T03:16:14.156Z,10.40
2023-10-26T03:18:38.578Z,10.40
2023-10-26T03:21:03.463Z,10.40
2023-10-26T03:23:26.966Z,10.20
2023-10-26T03:26:07.813Z,10.20
2023-10-26T03:28:37.914Z,10.20
2023-10-26T03:31:09.666Z,10.20
2023-10-26T03:33:46.541Z,10.20
2023-10-26T03:36:21.940Z,10.10
2023-10-26T03:39:00.132Z,10.20
2023-10-26T03:41:28.426Z,10.20
2023-10-26T03:44:02.161Z,10.20
2023-10-26T03:46:32.230Z,10.20
2023-10-26T03:49:04.428Z,10.30
2023-10-26T03:51:39.261Z,10.30
2023-10-26T03:54:17.635Z,10.40
2023-10-26T03:56:49.923Z,10.30
2023-10-26T03:59:22.115Z,10.30
2023-10-26T04:01:55.874Z,10.30
2023-10-26T04:04:29.497Z,10.30
2023-10-26T04:07:07.784Z,10.20
2023-10-26T04:09:37.948Z,10.20
2023-10-26T04:12:15.391Z,10.10
2023-10-26T04:14:53.118Z,10.20
2023-10-26T04:17:35.656Z,10.20
2023-10-26T04:20:09.410Z,10.10
2023-10-26T04:22:44.243Z,10.10
2023-10-26T04:25:50.236Z,10.00
2023-10-26T04:28:50.960Z,10.10
2023-10-26T04:31:27.498Z,10.00
2023-10-26T04:33:57.239Z,10.10
2023-10-26T04:36:23.250Z,10.10
2023-10-26T04:38:54.409Z,10.00
2023-10-26T04:41:28.840Z,10.10
2023-10-26T04:44:22.949Z,10.00
2023-10-26T04:46:53.278Z,10.00
2023-10-26T04:49:20.478Z,10.20
2023-10-26T04:52:02.260Z,10.10
2023-10-26T04:54:35.257Z,10.20
2023-10-26T04:57:02.676Z,10.20
2023-10-26T04:59:42.663Z,10.10
2023-10-26T05:02:06.816Z,10.10
2023-10-26T05:04:30.087Z,10.20
2023-10-26T05:06:54.192Z,10.30
2023-10-26T05:09:18.102Z,10.30
2023-10-26T05:11:43.526Z,10.10
2023-10-26T05:14:08.216Z,10.10
2023-10-26T05:16:31.492Z,10.10
2023-10-26T05:18:54.702Z,10.20
2023-10-26T05:21:18.411Z,10.00
2023-10-26T05:23:41.878Z,10.00
2023-10-26T05:26:05.701Z,10.00
2023-10-26T05:28:31.555Z,10.10
2023-10-26T05:30:54.875Z,10.10
2023-10-26T05:33:18.448Z,9.90
2023-10-26T05:35:41.991Z,10.00
2023-10-26T05:38:05.943Z,10.20
2023-10-26T05:40:29.182Z,10.10
2023-10-26T05:42:52.754Z,10.00
2023-10-26T05:45:17.588Z,10.00
2023-10-26T05:47:41.303Z,9.90
2023-10-26T05:50:06.334Z,9.90
2023-10-26T05:52:29.870Z,9.90
2023-10-26T05:54:56.498Z,10.00
2023-10-26T05:57:19.938Z,10.00
2023-10-26T05:59:43.242Z,10.20
2023-10-26T06:02:08.567Z,9.90
2023-10-26T06:04:33.633Z,9.90
2023-10-26T06:06:56.937Z,9.90
2023-10-26T06:09:19.438Z,9.90
2023-10-26T06:11:42.861Z,10.00
2023-10-26T06:14:06.500Z,9.80
2023-10-26T06:16:29.861Z,9.80
2023-10-26T06:18:54.962Z,9.80
2023-10-26T06:21:18.416Z,9.90
2023-10-26T06:23:41.694Z,9.90
2023-10-26T06:26:06.632Z,10.00
2023-10-26T06:28:30.973Z,10.00
2023-10-26T06:30:54.696Z,10.00
2023-10-26T06:33:18.349Z,10.10
2023-10-26T06:35:43.003Z,10.10
2023-10-26T06:38:06.532Z,10.00
2023-10-26T06:40:30.030Z,9.90
2023-10-26T06:42:53.731Z,9.90
2023-10-26T06:45:17.736Z,10.00
2023-10-26T06:47:41.890Z,10.00
2023-10-26T06:50:05.871Z,10.00
2023-10-26T06:52:31.093Z,9.80
2023-10-26T06:54:54.293Z,10.00
2023-10-26T06:57:17.873Z,10.00
2023-10-26T06:59:42.619Z,10.00
2023-10-26T07:02:10.751Z,10.00
2023-10-26T07:04:37.117Z,10.10
2023-10-26T07:07:01.955Z,10.10
2023-10-26T07:09:28.080Z,10.10
2023-10-26T07:11:53.917Z,10.10
2023-10-26T07:14:17.629Z,10.20
2023-10-26T07:16:41.287Z,10.30
2023-10-26T07:19:04.879Z,10.20
2023-10-26T07:21:28.852Z,10.00
2023-10-26T07:23:52.161Z,10.10
2023-10-26T07:26:20.126Z,10.10
2023-10-26T07:28:44.116Z,10.20
2023-10-26T07:31:08.049Z,10.10
2023-10-26T07:33:31.937Z,10.00
2023-10-26T07:35:57.719Z,9.90
2023-10-26T07:38:35.537Z,10.00
2023-10-26T07:41:02.908Z,10.10
2023-10-26T07:43:28.230Z,10.20
2023-10-26T07:46:04.248Z,10.30
2023-10-26T07:48:27.973Z,10.30
2023-10-26T07:50:52.213Z,10.40
2023-10-26T07:53:17.785Z,10.20
2023-10-26T07:55:41.264Z,10.20
2023-10-26T07:58:07.080Z,10.10
2023-10-26T08:00:32.903Z,10.40
2023-10-26T08:02:56.705Z,10.30
2023-10-26T08:05:20.285Z,10.30
2023-10-26T08:07:54.758Z,10.30
2023-10-26T08:10:41.495Z,10.50
2023-10-26T08:13:12.667Z,10.40
2023-10-26T08:16:06.182Z,10.40
2023-10-26T08:18:21.530Z,10.50
2023-10-26T08:20:51.055Z,10.70
2023-10-26T08:23:14.296Z,10.60
2023-10-26T08:25:38.993Z,10.60
2023-10-26T08:28:02.165Z,10.40
2023-10-26T08:30:26.218Z,10.20
2023-10-26T08:32:55.467Z,10.30
2023-10-26T08:35:19.911Z,10.30
2023-10-26T08:37:43.556Z,10.30
2023-10-26T08:40:13.518Z,10.30
2023-10-26T08:42:40.268Z,10.40
2023-10-26T08:45:05.079Z,10.20
2023-10-26T08:47:31.440Z,10.40
2023-10-26T08:50:15.385Z,10.50
2023-10-26T08:52:40.827Z,10.60
2023-10-26T08:55:04.173Z,10.50
2023-10-26T08:57:27.488Z,10.50
2023-10-26T08:59:51.138Z,10.50
2023-10-26T09:02:14.419Z,10.60
2023-10-26T09:04:38.175Z,10.50
2023-10-26T09:07:03.108Z,10.70
2023-10-26T09:09:26.276Z,10.70
2023-10-26T09:11:50.302Z,10.80
2023-10-26T09:14:18.325Z,10.70
2023-10-26T09:16:44.219Z,10.90
2023-10-26T09:19:07.577Z,10.90
2023-10-26T09:21:32.326Z,10.90
2023-10-26T09:23:57.152Z,11.00
2023-10-26T09:26:21.622Z,10.90
2023-10-26T09:28:53.150Z,10.90
2023-10-26T09:31:17.198Z,10.60
2023-10-26T09:33:42.029Z,10.80
2023-10-26T09:36:13.628Z,10.90
2023-10-26T09:38:37.981Z,10.80
2023-10-26T09:41:05.800Z,11.10
2023-10-26T09:43:29.754Z,11.10
2023-10-26T09:45:53.651Z,11.10
2023-10-26T09:48:18.522Z,11.00
2023-10-26T09:50:42.427Z,11.00
2023-10-26T09:53:07.365Z,11.00
2023-10-26T09:55:31.593Z,11.00
2023-10-26T09:58:12.113Z,11.10
2023-10-26T10:00:52.221Z,11.10
2023-10-26T10:03:40.497Z,11.20
2023-10-26T10:06:48.460Z,11.10
2023-10-26T10:09:19.086Z,11.10
2023-10-26T10:11:49.747Z,11.20
2023-10-26T10:18:45.522Z,11.30
2023-10-26T10:21:43.250Z,11.10
2023-10-26T10:24:26.547Z,11.60
2023-10-26T10:27:22.961Z,11.40
2023-10-26T10:29:55.090Z,11.60
2023-10-26T10:33:12.060Z,11.70
2023-10-26T10:36:14.468Z,12.00
2023-10-26T10:38:58.746Z,12.20
2023-10-26T10:41:27.985Z,12.30
2023-10-26T10:44:01.875Z,12.50
2023-10-26T10:47:05.558Z,12.50
2023-10-26T10:49:53.934Z,12.50
2023-10-26T10:52:54.895Z,12.70
2023-10-26T10:55:36.044Z,13.00
2023-10-26T10:58:36.195Z,12.80
2023-10-26T11:01:31.878Z,12.50
2023-10-26T11:04:26.556Z,12.50
2023-10-26T11:06:55.606Z,12.50
2023-10-26T11:09:42.199Z,12.50
2023-10-26T11:12:26.192Z,12.40
2023-10-26T11:15:49.849Z,12.50
2023-10-26T11:19:08.255Z,12.60
2023-10-26T11:22:19.731Z,12.80
2023-10-26T11:25:14.859Z,12.70
2023-10-26T11:27:59.162Z,12.60
2023-10-26T11:30:57.814Z,12.50
2023-10-26T11:33:52.300Z,12.50
2023-10-26T11:36:40.932Z,12.60
2023-10-26T11:39:46.360Z,12.60
2023-10-26T11:43:04.895Z,12.50
2023-10-26T11:46:23.765Z,12.50
2023-10-26T11:49:09.803Z,12.50
2023-10-26T11:52:00.299Z,12.50
2023-10-26T11:55:18.221Z,12.60
2023-10-26T11:58:24.253Z,12.50
2023-10-26T12:01:32.132Z,12.70
2023-10-26T12:04:52.112Z,12.60
2023-10-26T12:07:32.313Z,12.60
2023-10-26T12:10:43.063Z,12.50
2023-10-26T12:13:32.030Z,12.50
2023-10-26T12:16:24.085Z,12.40
2023-10-26T12:19:17.460Z,12.50
2023-10-26T12:21:58.696Z,12.40
2023-10-26T12:25:18.121Z,12.50
2023-10-26T12:28:34.961Z,12.50
2023-10-26T12:31:31.455Z,12.70
2023-10-26T12:34:32.770Z,12.60
2023-10-26T12:37:30.483Z,12.60
2023-10-26T12:40:15.918Z,12.60
2023-10-26T12:43:26.241Z,12.50
2023-10-26T12:46:21.487Z,12.70
2023-10-26T12:49:27.883Z,12.80
2023-10-26T13:02:00.698Z,12.80
2023-10-26T13:04:51.395Z,12.80
2023-10-26T13:07:51.428Z,12.50
2023-10-26T13:10:48.582Z,12.60
2023-10-26T13:14:02.562Z,12.80
2023-10-26T13:19:38.257Z,12.80
2023-10-26T13:22:03.413Z,13.00
2023-10-26T13:24:28.030Z,12.90
2023-10-26T13:26:51.388Z,13.00
2023-10-26T13:29:15.971Z,13.00
2023-10-26T13:31:39.461Z,13.00
2023-10-26T13:34:03.482Z,12.90
2023-10-26T13:36:27.496Z,12.80
2023-10-26T13:38:51.347Z,12.70
2023-10-26T13:41:14.760Z,13.00
2023-10-26T13:43:38.386Z,13.00
2023-10-26T13:46:07.358Z,13.10
2023-10-26T13:48:30.938Z,13.00
2023-10-26T13:50:57.735Z,13.00
2023-10-26T13:53:22.234Z,13.00
2023-10-26T13:55:45.620Z,13.00
2023-10-26T13:58:10.136Z,13.10
2023-10-26T14:00:34.094Z,13.10
2023-10-26T14:02:58.819Z,13.10
2023-10-26T14:05:30.495Z,13.30
2023-10-26T14:07:54.530Z,13.30
2023-10-26T14:10:18.740Z,13.20
2023-10-26T14:12:42.630Z,13.10
2023-10-26T14:15:08.409Z,13.10
2023-10-26T14:17:35.343Z,13.00
2023-10-26T14:20:00.370Z,13.00
2023-10-26T14:22:23.946Z,13.00
2023-10-26T14:24:48.600Z,13.20
2023-10-26T14:27:12.688Z,13.10
2023-10-26T14:29:36.352Z,13.10
2023-10-26T14:31:59.605Z,13.00
2023-10-26T14:34:23.709Z,12.90
2023-10-26T14:36:49.545Z,12.90
2023-10-26T14:39:13.515Z,12.80
2023-10-26T14:41:37.372Z,12.60
2023-10-26T14:44:00.813Z,12.50
2023-10-26T14:46:25.222Z,12.50
2023-10-26T14:48:50.285Z,12.50
2023-10-26T14:51:14.313Z,12.50
2023-10-26T14:53:39.584Z,12.60
2023-10-26T14:56:03.826Z,12.70
2023-10-26T14:58:27.494Z,12.70
2023-10-26T15:00:51.679Z,12.60
2023-10-26T15:03:15.456Z,12.60
2023-10-26T15:05:40.458Z,12.50
2023-10-26T15:08:05.674Z,12.60
2023-10-26T15:10:36.605Z,12.50
2023-10-26T15:13:01.640Z,12.60
2023-10-26T15:15:26.354Z,12.70
2023-10-26T15:17:50.683Z,12.80
2023-10-26T15:20:14.402Z,12.70
2023-10-26T15:22:38.420Z,12.70
2023-10-26T15:25:01.928Z,12.50
2023-10-26T15:27:26.869Z,12.60
2023-10-26T15:29:50.476Z,12.50
2023-10-26T15:32:18.827Z,12.50
2023-10-26T15:34:42.833Z,12.50
2023-10-26T15:37:06.600Z,12.50
2023-10-26T15:39:31.327Z,12.50
2023-10-26T15:41:55.603Z,12.50
2023-10-26T15:44:21.865Z,12.50
2023-10-26T15:46:45.604Z,12.50
2023-10-26T15:49:33.335Z,12.50
2023-10-26T15:51:52.871Z,12.50
2023-10-26T15:54:16.642Z,12.50
2023-10-26T15:56:40.561Z,12.20
2023-10-26T15:59:04.830Z,12.40
2023-10-26T16:01:29.684Z,12.40
2023-10-26T16:03:53.720Z,12.30
2023-10-26T16:06:18.400Z,12.30
2023-10-26T16:08:43.160Z,12.20
2023-10-26T16:11:11.497Z,12.30
2023-10-26T16:13:35.835Z,12.30
2023-10-26T16:16:00.501Z,12.20
2023-10-26T16:18:25.673Z,12.40
2023-10-26T16:20:49.440Z,12.30
2023-10-26T16:23:13.293Z,12.20
2023-10-26T16:25:37.145Z,12.30
2023-10-26T16:28:00.668Z,12.30
2023-10-26T16:30:23.875Z,12.20
2023-10-26T16:32:47.438Z,12.20
2023-10-26T16:35:12.184Z,12.30
2023-10-26T16:37:36.500Z,12.10
2023-10-26T16:40:00.065Z,12.00
2023-10-26T16:42:23.724Z,12.00
2023-10-26T16:44:47.182Z,12.00
2023-10-26T16:47:10.396Z,12.00
2023-10-26T16:49:33.968Z,12.10
2023-10-26T16:52:00.653Z,12.20
2023-10-26T16:54:24.288Z,12.10
2023-10-26T16:56:47.903Z,12.30
2023-10-26T16:59:11.510Z,12.10
2023-10-26T17:01:34.734Z,12.10
2023-10-26T17:03:58.171Z,12.10
2023-10-26T17:06:21.382Z,12.00
2023-10-26T17:08:46.131Z,12.00
2023-10-26T17:11:11.113Z,12.10
2023-10-26T17:13:34.549Z,12.00
2023-10-26T17:15:57.802Z,12.00
2023-10-26T17:18:21.674Z,12.00
2023-10-26T17:20:44.941Z,12.00
2023-10-26T17:23:08.834Z,12.00
2023-10-26T17:25:36.636Z,12.00
2023-10-26T17:28:00.023Z,12.00
2023-10-26T17:30:23.253Z,11.90
2023-10-26T17:32:47.980Z,12.00
2023-10-26T17:35:12.202Z,12.00
2023-10-26T17:37:37.111Z,12.00
2023-10-26T17:40:00.713Z,12.00
2023-10-26T17:42:26.727Z,12.00
2023-10-26T17:44:50.549Z,12.00
2023-10-26T17:47:14.221Z,12.00
2023-10-26T17:49:37.954Z,12.00
2023-10-26T17:52:01.437Z,12.00
2023-10-26T17:54:24.723Z,12.00
2023-10-26T17:56:48.326Z,12.00
2023-10-26T17:59:13.030Z,12.00
2023-10-26T18:01:37.822Z,12.00
2023-10-26T18:04:01.266Z,11.90
2023-10-26T18:06:25.397Z,11.90
2023-10-26T18:08:50.142Z,12.00
2023-10-26T18:11:13.703Z,11.80
2023-10-26T18:13:37.393Z,11.80
2023-10-26T18:16:06.069Z,11.80
2023-10-26T18:18:30.133Z,11.70
2023-10-26T18:20:56.268Z,11.90
2023-10-26T18:23:19.701Z,11.90
2023-10-26T18:25:42.887Z,11.90
2023-10-26T18:28:06.788Z,11.80
2023-10-26T18:30:30.231Z,11.80
2023-10-26T18:32:57.111Z,11.90
2023-10-26T18:35:21.538Z,11.90
2023-10-26T18:37:45.188Z,11.90
2023-10-26T18:40:10.796Z,11.90
2023-10-26T18:42:34.175Z,11.80
2023-10-26T18:44:57.389Z,11.80
2023-10-26T18:47:20.640Z,11.80
2023-10-26T18:49:46.120Z,11.80
2023-10-26T18:52:09.826Z,11.80
2023-10-26T18:54:33.244Z,11.80
2023-10-26T18:56:57.042Z,12.00
2023-10-26T18:59:20.409Z,11.90
2023-10-26T19:01:45.146Z,11.90
2023-10-26T19:04:08.538Z,12.00
2023-10-26T19:06:33.403Z,12.00
2023-10-26T19:08:57.194Z,12.00
2023-10-26T19:11:20.473Z,12.00
2023-10-26T19:13:44.011Z,11.90
2023-10-26T19:16:08.511Z,11.70
2023-10-26T19:18:32.738Z,11.60
2023-10-26T19:20:56.346Z,11.50
2023-10-26T19:23:22.185Z,11.60
2023-10-26T19:25:45.581Z,11.60
2023-10-26T19:28:09.158Z,11.60
2023-10-26T19:30:34.107Z,11.80
2023-10-26T19:32:58.887Z,11.80
2023-10-26T19:35:22.825Z,11.80
2023-10-26T19:37:46.243Z,11.90
2023-10-26T19:40:12.362Z,11.90
2023-10-26T19:42:38.918Z,11.80
2023-10-26T19:45:02.815Z,11.80
2023-10-26T19:47:26.238Z,11.90
2023-10-26T19:49:49.719Z,11.90
2023-10-26T19:52:14.643Z,11.90
2023-10-26T19:54:38.634Z,11.90
2023-10-26T19:57:03.796Z,11.90
2023-10-26T19:59:27.407Z,11.80
2023-10-26T20:01:50.813Z,11.80
2023-10-26T20:04:15.023Z,11.80
2023-10-26T20:06:38.273Z,11.80
2023-10-26T20:09:01.500Z,11.80
2023-10-26T20:11:24.974Z,11.80
2023-10-26T20:13:50.317Z,11.70
2023-10-26T20:16:14.597Z,11.70
2023-10-26T20:18:42.971Z,11.70
2023-10-26T20:21:07.495Z,11.80
2023-10-26T20:23:30.983Z,11.80
2023-10-26T20:25:57.640Z,11.90
2023-10-26T20:28:20.979Z,11.90
2023-10-26T20:30:46.125Z,11.90
2023-10-26T20:33:09.459Z,11.90
2023-10-26T20:35:32.977Z,11.80
2023-10-26T20:37:56.481Z,11.80
2023-10-26T20:40:20.105Z,11.80
2023-10-26T20:42:45.133Z,11.80
2023-10-26T20:45:09.818Z,11.80
2023-10-26T20:47:35.136Z,11.80
2023-10-26T20:49:59.261Z,11.90
2023-10-26T20:52:23.583Z,11.90
2023-10-26T20:54:46.874Z,11.90
2023-10-26T20:57:10.116Z,11.80
2023-10-26T20:59:33.690Z,11.80
2023-10-26T21:01:56.957Z,11.70
2023-10-26T21:04:21.714Z,11.60
2023-10-26T21:06:47.727Z,11.70
2023-10-26T21:09:11.879Z,11.60
2023-10-26T21:11:35.283Z,11.60
2023-10-26T21:13:58.483Z,11.60
2023-10-26T21:16:22.746Z,11.50
2023-10-26T21:18:46.061Z,11.50
2023-10-26T21:21:11.406Z,11.50
2023-10-26T21:23:36.050Z,11.50
2023-10-26T21:25:59.293Z,11.60
2023-10-26T21:28:22.570Z,11.60
2023-10-26T21:30:47.056Z,11.60
2023-10-26T21:33:10.258Z,11.50
2023-10-26T21:35:37.667Z,11.50
2023-10-26T21:38:02.329Z,11.50
2023-10-26T21:40:26.018Z,11.50
2023-10-26T21:42:50.185Z,11.50
2023-10-26T21:45:13.544Z,11.50
2023-10-26T21:47:36.900Z,11.60
2023-10-26T21:50:00.495Z,11.60
2023-10-26T21:52:23.734Z,11.50
2023-10-26T21:54:48.647Z,11.40
2023-10-26T21:57:12.334Z,11.30
2023-10-26T21:59:35.584Z,11.40
2023-10-26T22:01:59.382Z,11.50
2023-10-26T22:04:23.046Z,11.50
2023-10-26T22:06:47.207Z,11.50
2023-10-26T22:09:11.037Z,11.50
2023-10-26T22:11:35.800Z,11.50
2023-10-26T22:13:59.268Z,11.50
2023-10-26T22:16:22.693Z,11.40
2023-10-26T22:18:46.174Z,11.40
2023-10-26T22:21:09.736Z,11.50
2023-10-26T22:23:33.291Z,11.50
2023-10-26T22:26:00.095Z,11.60
2023-10-26T22:28:24.934Z,11.60
2023-10-26T22:30:48.188Z,11.50
2023-10-26T22:33:12.245Z,11.60
2023-10-26T22:35:35.450Z,11.50
2023-10-26T22:37:58.867Z,11.50
2023-10-26T22:40:22.646Z,11.50
2023-10-26T22:42:46.311Z,11.50
2023-10-26T22:45:11.727Z,11.70
2023-10-26T22:47:35.434Z,11.60
2023-10-26T22:49:58.875Z,11.70
2023-10-26T22:52:22.776Z,11.80
2023-10-26T22:54:46.149Z,11.60
2023-10-26T22:57:10.163Z,11.60
2023-10-26T22:59:33.456Z,11.60
2023-10-26T23:01:58.423Z,11.50
2023-10-26T23:04:21.751Z,11.60
2023-10-26T23:06:45.014Z,11.60
2023-10-26T23:09:08.258Z,11.60
2023-10-26T23:11:31.919Z,11.70
2023-10-26T23:13:55.224Z,11.60
2023-10-26T23:16:19.507Z,11.60
2023-10-26T23:18:44.917Z,11.50
2023-10-26T23:21:08.156Z,11.50
2023-10-26T23:23:31.432Z,11.50
2023-10-26T23:25:55.016Z,11.60
2023-10-26T23:28:18.389Z,11.50
2023-10-26T23:30:41.638Z,11.50
2023-10-26T23:33:05.398Z,11.60
2023-10-26T23:35:32.146Z,11.60
2023-10-26T23:37:55.486Z,11.50
2023-10-26T23:40:20.442Z,11.50
2023-10-26T23:42:44.105Z,11.70
2023-10-26T23:45:08.806Z,11.70
2023-10-26T23:47:32.198Z,11.70
2023-10-26T23:49:56.804Z,11.60
2023-10-26T23:52:21.780Z,11.70
2023-10-26T23:54:45.478Z,11.70
2023-10-26T23:57:08.936Z,11.70
2023-10-26T23:59:32.162Z,11.90
